Decoded Metar for KLFI (HAMPTON in VA, USA) (IATA:LFI) | Meteo·Mobile Aviation Weather
aviador You're here:

KLFI Decoded Metar

HAMPTON in VA, USA
Report Time2018-12-19 15:56:00
UTC Time2018-12-19 16:22:26
Flight Rules vfr VFR
WindCalm
Visibility9999 m
Phenomena:N/A
Clouds:N/A
Expected CloudBase > 3,600 ft AGL from Temp-Dew spread
CeilingNone
Temp08°C (ISA -7)
Dew Point-1°C (53% RH)
AAT5.9°C
QNH1023 hPa
Density Alt-1,086 ft
Elevation10 ft
Report Wrong Elevation
Raw Report
KLFI 191556Z AUTO 00000KT 9SM CLR 08/M01 A3022 RMK AO2 SLP240
T00791014 $=

Extra information for KLFI:More info

Metar Taf Metar & Taf Last 4 Metars F.Rules Stats Wind Profile Meteogram Temp Stats Airport Information Weather charts Add Link Nearby VenuesMetar ALERT Operation Metar Decoded Social comments

AIRNAV info for KLFI